sensor_id;sensor_type;location;lat;lon;timestamp;P1;durP1;ratioP1;P2;durP2;ratioP2
14872;SDS011;7528;48.576;19.122;2024-01-27T00:03:45;0.20;;;0.20;;
14872;SDS011;7528;48.576;19.122;2024-01-27T00:08:49;0.30;;;0.30;;
14872;SDS011;7528;48.576;19.122;2024-01-27T00:13:52;0.30;;;0.30;;
14872;SDS011;7528;48.576;19.122;2024-01-27T00:18:54;0.30;;;0.30;;
14872;SDS011;7528;48.576;19.122;2024-01-27T00:23:58;0.20;;;0.20;;
14872;SDS011;7528;48.576;19.122;2024-01-27T00:29:03;0.27;;;0.27;;
14872;SDS011;7528;48.576;19.122;2024-01-27T00:34:05;0.20;;;0.20;;
14872;SDS011;7528;48.576;19.122;2024-01-27T00:39:09;0.30;;;0.30;;
14872;SDS011;7528;48.576;19.122;2024-01-27T00:44:12;0.20;;;0.20;;
14872;SDS011;7528;48.576;19.122;2024-01-27T00:49:14;0.30;;;0.30;;
14872;SDS011;7528;48.576;19.122;2024-01-27T00:54:18;0.20;;;0.20;;
14872;SDS011;7528;48.576;19.122;2024-01-27T00:59:20;0.30;;;0.30;;
14872;SDS011;7528;48.576;19.122;2024-01-27T01:04:23;0.20;;;0.20;;
14872;SDS011;7528;48.576;19.122;2024-01-27T01:09:27;0.20;;;0.20;;
14872;SDS011;7528;48.576;19.122;2024-01-27T01:14:29;0.30;;;0.30;;
14872;SDS011;7528;48.576;19.122;2024-01-27T01:19:31;0.20;;;0.20;;
14872;SDS011;7528;48.576;19.122;2024-01-27T01:24:35;0.20;;;0.20;;
14872;SDS011;7528;48.576;19.122;2024-01-27T01:29:37;0.30;;;0.30;;
14872;SDS011;7528;48.576;19.122;2024-01-27T01:34:40;0.30;;;0.30;;
14872;SDS011;7528;48.576;19.122;2024-01-27T01:39:44;0.30;;;0.30;;
14872;SDS011;7528;48.576;19.122;2024-01-27T01:44:46;0.20;;;0.20;;
14872;SDS011;7528;48.576;19.122;2024-01-27T01:49:48;0.20;;;0.20;;
14872;SDS011;7528;48.576;19.122;2024-01-27T01:54:53;0.27;;;0.27;;
14872;SDS011;7528;48.576;19.122;2024-01-27T01:59:55;0.30;;;0.30;;
14872;SDS011;7528;48.576;19.122;2024-01-27T02:04:58;0.30;;;0.30;;
14872;SDS011;7528;48.576;19.122;2024-01-27T02:10:02;0.27;;;0.27;;
14872;SDS011;7528;48.576;19.122;2024-01-27T02:15:05;0.20;;;0.20;;
14872;SDS011;7528;48.576;19.122;2024-01-27T02:20:12;0.30;;;0.30;;
14872;SDS011;7528;48.576;19.122;2024-01-27T02:25:16;0.30;;;0.30;;
14872;SDS011;7528;48.576;19.122;2024-01-27T02:30:19;0.20;;;0.20;;
14872;SDS011;7528;48.576;19.122;2024-01-27T02:35:21;0.30;;;0.30;;
14872;SDS011;7528;48.576;19.122;2024-01-27T02:40:26;0.27;;;0.27;;
14872;SDS011;7528;48.576;19.122;2024-01-27T02:45:28;0.20;;;0.20;;
14872;SDS011;7528;48.576;19.122;2024-01-27T02:50:30;0.20;;;0.20;;
14872;SDS011;7528;48.576;19.122;2024-01-27T02:55:34;0.30;;;0.30;;
14872;SDS011;7528;48.576;19.122;2024-01-27T03:00:37;0.30;;;0.30;;
14872;SDS011;7528;48.576;19.122;2024-01-27T03:05:39;0.30;;;0.30;;
14872;SDS011;7528;48.576;19.122;2024-01-27T03:10:43;0.20;;;0.20;;
14872;SDS011;7528;48.576;19.122;2024-01-27T03:15:45;0.30;;;0.30;;
14872;SDS011;7528;48.576;19.122;2024-01-27T03:20:48;0.20;;;0.20;;
14872;SDS011;7528;48.576;19.122;2024-01-27T03:25:52;0.20;;;0.20;;
14872;SDS011;7528;48.576;19.122;2024-01-27T03:30:55;0.20;;;0.20;;
14872;SDS011;7528;48.576;19.122;2024-01-27T03:35:57;0.20;;;0.20;;
14872;SDS011;7528;48.576;19.122;2024-01-27T03:41:01;0.30;;;0.30;;
14872;SDS011;7528;48.576;19.122;2024-01-27T03:46:03;0.30;;;0.30;;
14872;SDS011;7528;48.576;19.122;2024-01-27T03:51:06;0.30;;;0.30;;
14872;SDS011;7528;48.576;19.122;2024-01-27T03:56:12;0.30;;;0.30;;
14872;SDS011;7528;48.576;19.122;2024-01-27T04:01:14;0.20;;;0.20;;
14872;SDS011;7528;48.576;19.122;2024-01-27T04:06:17;0.20;;;0.20;;
14872;SDS011;7528;48.576;19.122;2024-01-27T04:11:21;0.20;;;0.20;;
14872;SDS011;7528;48.576;19.122;2024-01-27T04:16:23;0.23;;;0.23;;
14872;SDS011;7528;48.576;19.122;2024-01-27T04:21:26;0.20;;;0.20;;
14872;SDS011;7528;48.576;19.122;2024-01-27T04:26:30;0.30;;;0.30;;
14872;SDS011;7528;48.576;19.122;2024-01-27T04:31:33;0.20;;;0.20;;
14872;SDS011;7528;48.576;19.122;2024-01-27T04:36:35;0.20;;;0.20;;
14872;SDS011;7528;48.576;19.122;2024-01-27T04:41:42;0.20;;;0.20;;
14872;SDS011;7528;48.576;19.122;2024-01-27T04:46:45;0.30;;;0.30;;
14872;SDS011;7528;48.576;19.122;2024-01-27T04:51:47;0.20;;;0.20;;
14872;SDS011;7528;48.576;19.122;2024-01-27T04:56:51;0.20;;;0.20;;
14872;SDS011;7528;48.576;19.122;2024-01-27T05:01:54;0.30;;;0.30;;
14872;SDS011;7528;48.576;19.122;2024-01-27T05:06:56;0.20;;;0.20;;
14872;SDS011;7528;48.576;19.122;2024-01-27T05:12:00;0.20;;;0.20;;
14872;SDS011;7528;48.576;19.122;2024-01-27T05:17:03;0.20;;;0.20;;
14872;SDS011;7528;48.576;19.122;2024-01-27T05:22:05;0.30;;;0.30;;
14872;SDS011;7528;48.576;19.122;2024-01-27T05:27:09;0.30;;;0.30;;
14872;SDS011;7528;48.576;19.122;2024-01-27T05:32:12;0.20;;;0.20;;
14872;SDS011;7528;48.576;19.122;2024-01-27T05:37:14;0.30;;;0.30;;
14872;SDS011;7528;48.576;19.122;2024-01-27T05:42:18;0.20;;;0.20;;
14872;SDS011;7528;48.576;19.122;2024-01-27T05:47:20;0.30;;;0.30;;
14872;SDS011;7528;48.576;19.122;2024-01-27T05:52:23;0.20;;;0.20;;
14872;SDS011;7528;48.576;19.122;2024-01-27T05:57:27;0.20;;;0.20;;
14872;SDS011;7528;48.576;19.122;2024-01-27T06:02:30;0.20;;;0.20;;
14872;SDS011;7528;48.576;19.122;2024-01-27T06:07:32;0.30;;;0.30;;
14872;SDS011;7528;48.576;19.122;2024-01-27T06:12:37;0.30;;;0.30;;
14872;SDS011;7528;48.576;19.122;2024-01-27T06:17:40;0.30;;;0.30;;
14872;SDS011;7528;48.576;19.122;2024-01-27T06:22:42;0.20;;;0.20;;
14872;SDS011;7528;48.576;19.122;2024-01-27T06:27:46;0.30;;;0.30;;
14872;SDS011;7528;48.576;19.122;2024-01-27T06:32:49;0.20;;;0.20;;
14872;SDS011;7528;48.576;19.122;2024-01-27T06:37:51;0.20;;;0.20;;
14872;SDS011;7528;48.576;19.122;2024-01-27T06:42:55;0.23;;;0.23;;
14872;SDS011;7528;48.576;19.122;2024-01-27T06:47:58;0.30;;;0.30;;
14872;SDS011;7528;48.576;19.122;2024-01-27T06:53:00;0.30;;;0.30;;
14872;SDS011;7528;48.576;19.122;2024-01-27T06:58:04;0.30;;;0.30;;
14872;SDS011;7528;48.576;19.122;2024-01-27T07:03:07;0.30;;;0.30;;
14872;SDS011;7528;48.576;19.122;2024-01-27T07:08:09;0.20;;;0.20;;
14872;SDS011;7528;48.576;19.122;2024-01-27T07:13:13;0.30;;;0.30;;
14872;SDS011;7528;48.576;19.122;2024-01-27T07:18:16;0.20;;;0.20;;
14872;SDS011;7528;48.576;19.122;2024-01-27T07:23:20;0.30;;;0.30;;
14872;SDS011;7528;48.576;19.122;2024-01-27T07:28:26;0.20;;;0.20;;
14872;SDS011;7528;48.576;19.122;2024-01-27T07:33:29;0.30;;;0.30;;
14872;SDS011;7528;48.576;19.122;2024-01-27T07:38:31;0.30;;;0.30;;
14872;SDS011;7528;48.576;19.122;2024-01-27T07:43:35;0.20;;;0.20;;
14872;SDS011;7528;48.576;19.122;2024-01-27T07:48:37;0.37;;;0.37;;
14872;SDS011;7528;48.576;19.122;2024-01-27T07:53:40;0.30;;;0.30;;
14872;SDS011;7528;48.576;19.122;2024-01-27T07:58:44;0.30;;;0.30;;
14872;SDS011;7528;48.576;19.122;2024-01-27T08:03:47;0.30;;;0.30;;
14872;SDS011;7528;48.576;19.122;2024-01-27T08:08:50;0.33;;;0.33;;
14872;SDS011;7528;48.576;19.122;2024-01-27T08:13:54;0.40;;;0.40;;
14872;SDS011;7528;48.576;19.122;2024-01-27T08:18:56;0.20;;;0.20;;
14872;SDS011;7528;48.576;19.122;2024-01-27T08:23:58;0.30;;;0.30;;
14872;SDS011;7528;48.576;19.122;2024-01-27T08:29:02;0.30;;;0.30;;
14872;SDS011;7528;48.576;19.122;2024-01-27T08:34:04;0.40;;;0.40;;
14872;SDS011;7528;48.576;19.122;2024-01-27T08:39:07;0.30;;;0.30;;
14872;SDS011;7528;48.576;19.122;2024-01-27T08:44:14;0.30;;;0.30;;
14872;SDS011;7528;48.576;19.122;2024-01-27T08:49:16;0.30;;;0.30;;
14872;SDS011;7528;48.576;19.122;2024-01-27T08:54:19;0.40;;;0.40;;
14872;SDS011;7528;48.576;19.122;2024-01-27T08:59:22;0.20;;;0.20;;
14872;SDS011;7528;48.576;19.122;2024-01-27T09:04:25;0.40;;;0.40;;
14872;SDS011;7528;48.576;19.122;2024-01-27T09:09:28;0.50;;;0.50;;
14872;SDS011;7528;48.576;19.122;2024-01-27T09:14:32;0.60;;;0.60;;
14872;SDS011;7528;48.576;19.122;2024-01-27T09:19:34;0.60;;;0.60;;
14872;SDS011;7528;48.576;19.122;2024-01-27T09:24:37;0.40;;;0.40;;
14872;SDS011;7528;48.576;19.122;2024-01-27T09:29:41;0.50;;;0.50;;
14872;SDS011;7528;48.576;19.122;2024-01-27T09:34:43;0.60;;;0.60;;
14872;SDS011;7528;48.576;19.122;2024-01-27T09:39:46;0.47;;;0.47;;
14872;SDS011;7528;48.576;19.122;2024-01-27T09:44:50;0.60;;;0.60;;
14872;SDS011;7528;48.576;19.122;2024-01-27T09:49:54;0.40;;;0.40;;
14872;SDS011;7528;48.576;19.122;2024-01-27T09:54:57;0.50;;;0.50;;
14872;SDS011;7528;48.576;19.122;2024-01-27T10:00:01;0.50;;;0.50;;
14872;SDS011;7528;48.576;19.122;2024-01-27T10:05:06;0.60;;;0.60;;
14872;SDS011;7528;48.576;19.122;2024-01-27T10:10:10;0.60;;;0.60;;
14872;SDS011;7528;48.576;19.122;2024-01-27T10:15:20;0.60;;;0.60;;
14872;SDS011;7528;48.576;19.122;2024-01-27T10:20:28;0.50;;;0.50;;
14872;SDS011;7528;48.576;19.122;2024-01-27T10:25:30;0.50;;;0.50;;
14872;SDS011;7528;48.576;19.122;2024-01-27T10:30:40;0.50;;;0.50;;
14872;SDS011;7528;48.576;19.122;2024-01-27T10:35:44;0.50;;;0.50;;
14872;SDS011;7528;48.576;19.122;2024-01-27T10:40:46;0.40;;;0.40;;
14872;SDS011;7528;48.576;19.122;2024-01-27T10:45:50;0.40;;;0.40;;
14872;SDS011;7528;48.576;19.122;2024-01-27T10:50:53;0.40;;;0.40;;
14872;SDS011;7528;48.576;19.122;2024-01-27T10:55:57;0.30;;;0.30;;
14872;SDS011;7528;48.576;19.122;2024-01-27T11:01:01;0.30;;;0.30;;
